This is the latest recevied weather packets stored in our database for station/object HS5AU-13. If no packets are shown the sender has not sent any weather packets the latest 1 day(s).
| Time | Temp. | Humidity | Pressure | Rain* | Wind** | Luminosity | Snow |
|---|---|---|---|---|---|---|---|
| 1788608107 | 23.89° C | 94% | 1003.5 hPa | 0 mm | - | 2 W/m² | - |
| 1788607507 | 23.89° C | 89% | 1004.7 hPa | 0 mm | - | 2 W/m² | - |
| 1788606907 | 24.44° C | 88% | 1004.9 hPa | 0 mm | - | 4 W/m² | - |
| 1788606307 | 25° C | 82% | 1005.5 hPa | 0 mm | - | 7 W/m² | - |
| 1788605707 | 25° C | 75% | 1005.6 hPa | 0 mm | - | 9 W/m² | - |
| 1788605107 | 24.44° C | 80% | 1005 hPa | 0 mm | - | 9 W/m² | - |
| 1788604507 | 24.44° C | 91% | 1003 hPa | 0 mm | - | 10 W/m² | - |
| 1788603907 | 23.89° C | 96% | 1001.5 hPa | 0 mm | - | 10 W/m² | - |
| 1788603307 | 23.89° C | 96% | 1001.1 hPa | 0 mm | - | 11 W/m² | - |
| 1788602707 | 23.33° C | 99% | 1000.6 hPa | 0 mm | - | 13 W/m² | - |
| 1788602107 | 22.78° C | 99% | 1000.7 hPa | 0 mm | - | 16 W/m² | - |
| 1788601507 | 22.22° C | 99% | 1001 hPa | 0 mm | - | 20 W/m² | - |
| 1788600907 | 22.22° C | 97% | 1001.5 hPa | 0 mm | - | 25 W/m² | - |
| 1788600307 | 22.78° C | 96% | 1002 hPa | 0 mm | - | 30 W/m² | - |
| 1788599707 | 23.33° C | 93% | 1002.6 hPa | 0 mm | - | 44 W/m² | - |
| 1788599107 | 23.89° C | 92% | 1002.8 hPa | 0 mm | - | 63 W/m² | - |
| 1788598507 | 24.44° C | 93% | 1003.1 hPa | 0 mm | - | 78 W/m² | - |
| 1788597907 | 25.56° C | 86% | 1004.8 hPa | 0 mm | - | 96 W/m² | - |
| 1788597307 | 25.56° C | 87% | 1004.5 hPa | 0 mm | - | 106 W/m² | - |
| 1788596707 | 25° C | 85% | 1003.8 hPa | 0 mm | - | 137 W/m² | - |
| 1788596107 | 25° C | 89% | 1003.6 hPa | 0 mm | - | 143 W/m² | - |
| 1788595507 | 24.44° C | 93% | 1002.6 hPa | 0 mm | - | 175 W/m² | - |
| 1788594907 | 23.89° C | 99% | 1001.3 hPa | 0 mm | - | 182 W/m² | - |
| 1788594307 | 23.89° C | 98% | 1001.7 hPa | 0 mm | - | 125 W/m² | - |
| 1788593707 | 23.89° C | 98% | 1001.9 hPa | 0 mm | - | 145 W/m² | - |
* Rain latest hour (hover to see other rain measurements)
** Current wind speed in m/s (hover to see current wind gust speed)